Terminal Aerodrome Forecast
Issued by NWS

Home | Current Version | Previous Version | Text Only | Print | Product List | Glossary On
Versions: 1 2 3 4 5 6 7 8 9 10 11 12 13 14 15 16 17 18 19 20 21
706
FTUS46 KPDT 191720
TAFRDM
TAF
KRDM 191720Z 1918/2018 34009KT P6SM SCT030 BKN200
      TEMPO 1918/1920 BKN030
     FM192000 34011G18KT P6SM SCT040 BKN200
     FM200100 32008KT P6SM SCT040 BKN200
     FM200600 VRB05KT P6SM FEW040 SCT200=

USA.gov is the U.S. government's official web portal to all federal, state and local government web resources and services.